createdAt,value
2019-04-13T00:01:49.214Z,3.40
2019-04-13T00:06:50.063Z,3.47
2019-04-13T00:11:47.897Z,3.43
2019-04-13T00:16:43.980Z,3.29
2019-04-13T00:21:40.003Z,3.25
2019-04-13T00:26:35.927Z,3.24
2019-04-13T00:31:31.923Z,3.05
2019-04-13T00:36:27.861Z,3.08
2019-04-13T00:41:23.785Z,3.04
2019-04-13T00:46:19.705Z,3.00
2019-04-13T00:51:16.212Z,2.96
2019-04-13T00:56:12.318Z,2.96
2019-04-13T01:01:08.245Z,3.02
2019-04-13T01:06:04.206Z,2.97
2019-04-13T01:11:00.226Z,2.79
2019-04-13T01:15:56.195Z,2.79
2019-04-13T01:20:55.789Z,2.72
2019-04-13T01:25:51.729Z,2.73
2019-04-13T01:30:47.695Z,2.67
2019-04-13T01:35:43.618Z,2.50
2019-04-13T01:40:39.747Z,2.44
2019-04-13T01:45:35.717Z,2.44
2019-04-13T01:50:36.293Z,2.45
2019-04-13T01:55:32.431Z,2.47
2019-04-13T02:00:39.286Z,2.70
2019-04-13T02:05:42.884Z,2.72
2019-04-13T02:10:46.674Z,2.82
2019-04-13T02:15:42.699Z,2.74
2019-04-13T02:20:41.908Z,2.61
2019-04-13T02:25:37.933Z,2.58
2019-04-13T02:30:33.868Z,2.44
2019-04-13T02:35:36.004Z,2.43
2019-04-13T02:40:27.797Z,2.42
2019-04-13T02:45:23.730Z,2.29
2019-04-13T02:50:19.858Z,2.28
2019-04-13T02:55:15.790Z,2.26
2019-04-13T03:00:12.452Z,2.39
2019-04-13T03:05:08.795Z,2.09
2019-04-13T03:10:05.205Z,2.17
2019-04-13T03:15:01.123Z,2.33
2019-04-13T03:20:07.797Z,2.14
2019-04-13T03:25:05.038Z,2.22
2019-04-13T03:30:01.053Z,2.34
2019-04-13T03:34:56.977Z,2.36
2019-04-13T03:39:52.987Z,2.30
2019-04-13T03:44:48.905Z,2.26
2019-04-13T03:49:44.834Z,2.34
2019-04-13T03:54:40.764Z,2.33
2019-04-13T03:59:36.682Z,2.16
2019-04-13T04:04:32.606Z,2.29
2019-04-13T04:09:28.522Z,2.23
2019-04-13T04:14:24.429Z,2.12
2019-04-13T04:19:20.353Z,2.01
2019-04-13T04:24:16.357Z,1.99
2019-04-13T04:29:12.275Z,2.13
2019-04-13T04:34:08.203Z,2.11
2019-04-13T04:39:05.627Z,2.27
2019-04-13T04:44:01.948Z,2.29
2019-04-13T04:48:57.966Z,2.21
2019-04-13T04:53:53.894Z,2.26
2019-04-13T04:58:49.815Z,2.23
2019-04-13T05:03:45.784Z,2.29
2019-04-13T05:08:43.584Z,2.25
2019-04-13T05:13:43.528Z,2.29
2019-04-13T05:18:41.818Z,2.31
2019-04-13T05:23:41.878Z,2.23
2019-04-13T05:28:39.866Z,2.32
2019-04-13T05:38:55.902Z,2.37
2019-04-13T05:43:52.663Z,2.39
2019-04-13T05:48:49.181Z,2.34
2019-04-13T05:53:47.688Z,2.51
2019-04-13T05:58:44.377Z,2.34
2019-04-13T06:03:40.989Z,2.44
2019-04-13T06:08:37.600Z,2.50
2019-04-13T06:13:34.153Z,2.79
2019-04-13T06:18:30.574Z,3.05
2019-04-13T06:23:26.776Z,3.00
2019-04-13T06:28:22.727Z,2.87
2019-04-13T06:33:23.395Z,3.23
2019-04-13T06:38:21.721Z,3.36
2019-04-13T06:43:17.394Z,3.19
2019-04-13T06:48:13.436Z,3.37
2019-04-13T06:53:09.497Z,3.55
2019-04-13T06:58:05.542Z,3.72
2019-04-13T07:03:01.567Z,4.36
2019-04-13T07:08:14.772Z,4.50
2019-04-13T07:13:24.941Z,3.83
2019-04-13T07:18:21.523Z,4.62
2019-04-13T07:23:17.476Z,4.22
2019-04-13T07:28:13.402Z,4.33
2019-04-13T07:33:09.437Z,4.21
2019-04-13T07:38:05.403Z,3.59
2019-04-13T07:43:01.428Z,3.68
2019-04-13T07:48:11.581Z,3.46
2019-04-13T07:53:09.422Z,3.88
2019-04-13T07:58:05.467Z,4.68
2019-04-13T08:03:01.390Z,4.73
2019-04-13T08:07:57.315Z,4.12
2019-04-13T08:12:53.249Z,4.74
2019-04-13T08:17:53.560Z,5.00
2019-04-13T08:22:47.500Z,4.67
2019-04-13T08:27:43.444Z,4.45
2019-04-13T08:32:41.783Z,5.09
2019-04-13T08:37:52.865Z,5.07
2019-04-13T08:48:01.242Z,5.99
2019-04-13T08:53:00.151Z,6.47
2019-04-13T08:58:07.145Z,6.85
2019-04-13T09:03:13.851Z,7.28
2019-04-13T09:08:28.642Z,7.41
2019-04-13T09:13:15.208Z,6.11
2019-04-13T09:18:16.382Z,6.10
2019-04-13T09:28:36.784Z,6.40
2019-04-13T09:33:38.490Z,6.14
2019-04-13T09:38:42.205Z,6.81
2019-04-13T09:43:40.050Z,5.54
2019-04-13T09:48:38.575Z,5.41
2019-04-13T09:53:38.729Z,5.31
2019-04-13T09:58:37.149Z,5.41
2019-04-13T10:03:39.165Z,5.36
2019-04-13T10:08:55.809Z,5.56
2019-04-13T10:19:01.348Z,5.21
2019-04-13T10:23:58.752Z,4.81
2019-04-13T10:29:07.898Z,5.34
2019-04-13T10:34:11.741Z,5.55
2019-04-13T10:39:16.159Z,6.03
2019-04-13T10:44:17.310Z,5.87
2019-04-13T10:49:34.334Z,6.03
2019-04-13T10:54:36.392Z,5.71
2019-04-13T10:59:40.140Z,5.34
2019-04-13T11:04:40.443Z,5.21
2019-04-13T11:09:39.910Z,4.94
2019-04-13T11:14:40.684Z,4.62
2019-04-13T11:19:44.128Z,4.48
2019-04-13T11:24:42.811Z,4.67
2019-04-13T11:29:59.471Z,5.27
2019-04-13T11:35:05.405Z,5.91
2019-04-13T11:40:03.533Z,6.36
2019-04-13T11:45:22.674Z,5.88
2019-04-13T11:50:21.363Z,5.66
2019-04-13T11:55:25.248Z,5.63
2019-04-13T12:00:43.881Z,5.58
2019-04-13T12:05:42.483Z,6.46
2019-04-13T12:10:45.861Z,6.93
2019-04-13T12:16:12.023Z,6.98
2019-04-13T12:21:36.223Z,6.73
2019-04-13T12:26:37.085Z,5.26
2019-04-13T12:31:39.331Z,5.45
2019-04-13T12:36:38.958Z,5.36
2019-04-13T12:42:00.872Z,5.42
2019-04-13T12:46:59.447Z,5.49
2019-04-13T12:52:00.859Z,6.16
2019-04-13T12:57:00.441Z,6.20
2019-04-13T13:02:10.812Z,6.98
2019-04-13T13:07:19.596Z,6.60
2019-04-13T13:12:23.479Z,5.53
2019-04-13T13:17:28.450Z,6.70
2019-04-13T13:22:25.473Z,8.03
2019-04-13T13:27:29.155Z,6.93
2019-04-13T13:32:31.414Z,8.03
2019-04-13T13:37:31.663Z,8.57
2019-04-13T13:42:30.519Z,8.08
2019-04-13T13:47:28.045Z,7.28
2019-04-13T13:52:32.317Z,8.26
2019-04-13T13:57:35.842Z,8.51
2019-04-13T14:02:33.442Z,8.58
2019-04-13T14:07:32.882Z,9.50
2019-04-13T14:12:31.640Z,8.64
2019-04-13T14:17:34.542Z,9.12
2019-04-13T14:22:32.384Z,8.78
2019-04-13T14:27:30.751Z,9.04
2019-04-13T14:32:30.122Z,9.56
2019-04-13T14:37:36.397Z,8.84
2019-04-13T14:42:34.333Z,8.68
2019-04-13T14:47:37.324Z,7.72
2019-04-13T14:52:36.086Z,6.97
2019-04-13T14:57:38.981Z,6.00
2019-04-13T15:02:37.202Z,5.08
2019-04-13T15:07:35.301Z,5.09
2019-04-13T15:12:37.009Z,5.06
2019-04-13T15:17:56.594Z,4.93
2019-04-13T15:22:57.326Z,5.25
2019-04-13T15:27:56.855Z,5.43
2019-04-13T15:32:56.036Z,4.97
2019-04-13T15:37:56.043Z,5.47
2019-04-13T15:43:00.091Z,4.82
2019-04-13T15:47:55.249Z,5.04
2019-04-13T15:52:58.226Z,5.64
2019-04-13T15:57:55.577Z,6.20
2019-04-13T16:02:56.319Z,6.70
2019-04-13T16:08:05.286Z,7.26
2019-04-13T16:13:08.799Z,7.51
2019-04-13T16:18:11.800Z,7.73
2019-04-13T16:23:11.710Z,7.95
2019-04-13T16:28:24.681Z,8.14
2019-04-13T16:33:39.194Z,8.78
2019-04-13T16:38:51.618Z,9.35
2019-04-13T16:43:41.000Z,8.07
2019-04-13T16:48:55.892Z,6.85
2019-04-13T16:54:00.414Z,6.39
2019-04-13T16:59:07.390Z,5.46
2019-04-13T17:04:23.925Z,4.85
2019-04-13T17:09:27.411Z,4.66
2019-04-13T17:14:24.887Z,4.57
2019-04-13T17:24:59.791Z,4.63
2019-04-13T17:30:17.791Z,4.28
2019-04-13T17:35:28.668Z,4.10
2019-04-13T17:46:09.883Z,4.21
2019-04-13T17:51:37.508Z,3.96
2019-04-13T17:56:36.482Z,4.12
2019-04-13T18:01:53.509Z,3.84
2019-04-13T18:07:09.405Z,3.78
2019-04-13T18:12:41.546Z,3.64
2019-04-13T18:17:32.899Z,3.63
2019-04-13T18:22:31.492Z,3.59
2019-04-13T18:27:34.992Z,3.43
2019-04-13T18:32:36.020Z,3.40
2019-04-13T18:37:32.823Z,3.45
2019-04-13T18:42:28.806Z,3.40
2019-04-13T18:47:24.849Z,3.56
2019-04-13T18:52:21.738Z,3.35
2019-04-13T18:57:17.837Z,3.37
2019-04-13T19:02:14.655Z,3.31
2019-04-13T19:07:10.780Z,3.29
2019-04-13T19:12:06.707Z,3.44
2019-04-13T19:17:02.732Z,3.23
2019-04-13T19:21:58.656Z,3.31
2019-04-13T19:26:54.582Z,3.37
2019-04-13T19:31:50.589Z,3.42
2019-04-13T19:36:46.561Z,3.54
2019-04-13T19:41:42.481Z,3.55
2019-04-13T19:46:38.510Z,3.48
2019-04-13T19:51:41.614Z,3.35
2019-04-13T19:56:37.605Z,3.46
2019-04-13T20:01:33.532Z,3.29
2019-04-13T20:06:29.457Z,3.27
2019-04-13T20:11:25.377Z,3.08
2019-04-13T20:16:21.370Z,3.36
2019-04-13T20:21:22.375Z,3.37
2019-04-13T20:26:18.728Z,3.26
2019-04-13T20:31:15.825Z,3.21
2019-04-13T20:36:16.618Z,3.18
2019-04-13T20:41:12.687Z,3.19
2019-04-13T20:46:10.984Z,3.22
2019-04-13T20:51:12.826Z,3.33
2019-04-13T20:56:09.793Z,3.35
2019-04-13T21:01:06.324Z,3.28
2019-04-13T21:06:02.468Z,3.36
2019-04-13T21:10:58.405Z,3.47
2019-04-13T21:15:55.358Z,3.40
2019-04-13T21:20:59.947Z,3.66
2019-04-13T21:25:56.082Z,3.61
2019-04-13T21:30:53.162Z,3.59
2019-04-13T21:35:49.295Z,3.62
2019-04-13T21:40:45.205Z,3.75
2019-04-13T21:45:41.248Z,3.76
2019-04-13T21:51:00.922Z,3.80
2019-04-13T21:55:57.225Z,3.66
2019-04-13T22:01:17.046Z,3.70
2019-04-13T22:06:13.114Z,3.72
2019-04-13T22:11:10.311Z,3.64
2019-04-13T22:16:06.381Z,3.83
2019-04-13T22:21:06.888Z,3.79
2019-04-13T22:26:03.063Z,3.95
2019-04-13T22:31:09.757Z,3.93
2019-04-13T22:36:16.365Z,3.88
2019-04-13T22:41:13.408Z,3.91
2019-04-13T22:46:10.853Z,3.89
2019-04-13T22:51:27.139Z,3.72
2019-04-13T22:56:37.652Z,3.66
2019-04-13T23:01:39.786Z,3.61
2019-04-13T23:06:35.989Z,3.61
2019-04-13T23:11:32.459Z,3.62
2019-04-13T23:16:28.500Z,3.62
2019-04-13T23:21:25.094Z,3.54
2019-04-13T23:26:21.295Z,3.44
2019-04-13T23:31:17.355Z,3.38
2019-04-13T23:36:13.600Z,3.31
2019-04-13T23:41:10.316Z,3.30
2019-04-13T23:46:06.872Z,3.19
2019-04-13T23:51:03.587Z,3.25
2019-04-13T23:56:02.035Z,3.06
